Time;durP1;ratioP1;P1;durP2;ratioP2;P2;SDS_P1;SDS_P2;PMS_P1;PMS_P2;Temp;Humidity;BMP_temperature;BMP_pressure;BME280_temperature;BME280_humidity;BME280_pressure;Samples;Min_cycle;Max_cycle;Signal;HPM_P1;HPM_P2
2023/01/25 00:00:42;;;;;;;14.00;7.18;;;7.30;70.40;;;;;;2314401;54;20984;-73
2023/01/25 00:03:09;;;;;;;13.48;7.68;;;7.30;70.30;;;;;;2314035;54;20964;-72
2023/01/25 00:05:35;;;;;;;12.95;6.47;;;7.30;70.10;;;;;;2413353;53;20972;-72
2023/01/25 00:08:04;;;;;;;13.93;7.32;;;7.30;70.10;;;;;;2314846;53;20933;-72
2023/01/25 00:10:31;;;;;;;14.55;7.57;;;7.30;70.00;;;;;;2329365;53;21517;-73
2023/01/25 00:12:57;;;;;;;13.43;7.25;;;7.20;69.90;;;;;;2314545;54;20983;-72
2023/01/25 00:15:24;;;;;;;13.30;7.50;;;7.20;69.90;;;;;;2535713;53;21809;-73
2023/01/25 00:17:50;;;;;;;14.32;7.25;;;7.20;69.90;;;;;;2314627;54;21355;-72
2023/01/25 00:20:16;;;;;;;13.05;7.35;;;7.20;70.00;;;;;;2444945;53;21541;-72
2023/01/25 00:22:43;;;;;;;15.55;8.15;;;7.20;70.00;;;;;;2314290;54;20937;-73
2023/01/25 00:25:09;;;;;;;15.32;7.65;;;7.10;69.90;;;;;;2358417;53;20933;-73
2023/01/25 00:27:36;;;;;;;15.27;7.95;;;7.10;69.90;;;;;;2331913;54;20929;-72
2023/01/25 00:30:02;;;;;;;15.73;8.60;;;7.10;69.90;;;;;;2361908;53;20933;-73
2023/01/25 00:32:40;;;;;;;14.82;7.55;;;7.10;69.90;;;;;;2375917;53;20956;-72
2023/01/25 00:35:09;;;;;;;17.17;8.07;;;7.10;69.80;;;;;;2314663;54;20972;-72
2023/01/25 00:37:38;;;;;;;13.25;7.30;;;7.00;69.80;;;;;;2314487;54;21787;-72
2023/01/25 00:40:05;;;;;;;13.25;6.93;;;7.00;69.90;;;;;;2317519;53;21359;-72
2023/01/25 00:42:31;;;;;;;13.18;7.32;;;7.00;70.00;;;;;;2313717;54;20988;-73
2023/01/25 00:44:57;;;;;;;11.85;6.75;;;7.00;70.00;;;;;;2314663;54;21360;-73
2023/01/25 00:47:23;;;;;;;14.40;7.28;;;7.00;70.00;;;;;;2434662;53;20953;-72
2023/01/25 00:49:50;;;;;;;14.23;7.32;;;6.90;69.90;;;;;;2391370;53;21407;-73
2023/01/25 00:52:17;;;;;;;14.85;7.05;;;6.90;69.90;;;;;;2313871;54;21442;-72
2023/01/25 00:54:43;;;;;;;14.23;7.00;;;6.90;69.90;;;;;;2314274;54;20988;-72
2023/01/25 00:57:09;;;;;;;12.77;6.93;;;6.90;69.90;;;;;;2410591;53;21478;-72
2023/01/25 00:59:35;;;;;;;14.68;7.22;;;6.90;69.90;;;;;;2366488;53;20953;-73
2023/01/25 01:02:02;;;;;;;14.90;7.55;;;6.90;70.00;;;;;;2314679;54;21570;-72
2023/01/25 01:04:29;;;;;;;13.15;7.12;;;6.90;70.00;;;;;;2314277;54;21020;-72
2023/01/25 01:06:55;;;;;;;15.45;8.25;;;6.90;70.00;;;;;;2384692;53;20977;-73
2023/01/25 01:09:22;;;;;;;13.73;7.43;;;6.80;70.00;;;;;;2314230;54;21775;-72
2023/01/25 01:11:48;;;;;;;12.37;6.78;;;6.80;70.10;;;;;;2314593;54;20996;-73
2023/01/25 01:14:14;;;;;;;14.95;7.35;;;6.80;70.20;;;;;;2314280;54;21374;-72
2023/01/25 01:16:41;;;;;;;12.05;6.55;;;6.80;70.30;;;;;;2314373;54;20948;-72
2023/01/25 01:19:07;;;;;;;11.77;6.28;;;6.80;70.40;;;;;;2314428;54;20941;-73
2023/01/25 01:21:33;;;;;;;13.05;6.78;;;6.90;70.50;;;;;;2313397;54;22217;-73
2023/01/25 01:24:00;;;;;;;11.00;5.95;;;6.90;70.60;;;;;;2332297;53;20961;-72
2023/01/25 01:26:26;;;;;;;12.90;6.60;;;6.90;70.60;;;;;;2318947;54;21673;-72
2023/01/25 01:28:52;;;;;;;13.73;6.75;;;6.90;70.60;;;;;;2339998;53;20937;-72
2023/01/25 01:31:20;;;;;;;11.27;6.35;;;6.90;70.70;;;;;;2333786;54;21469;-72
2023/01/25 01:33:54;;;;;;;13.32;6.40;;;6.90;70.60;;;;;;2314233;54;20956;-72
2023/01/25 01:36:22;;;;;;;12.75;6.93;;;6.90;70.50;;;;;;2313677;54;21027;-72
2023/01/25 01:38:48;;;;;;;12.18;6.28;;;7.00;70.70;;;;;;2314080;54;21084;-73
2023/01/25 01:41:14;;;;;;;12.75;6.43;;;7.00;70.60;;;;;;2502673;53;20956;-71
2023/01/25 01:43:41;;;;;;;12.75;6.62;;;6.90;70.40;;;;;;2314382;54;21372;-73
2023/01/25 01:46:17;;;;;;;10.55;5.75;;;7.00;70.60;;;;;;2314718;54;21270;-72
2023/01/25 01:48:50;;;;;;;10.77;5.85;;;7.00;70.50;;;;;;2314304;54;21370;-72
2023/01/25 01:51:27;;;;;;;11.30;6.62;;;7.00;70.50;;;;;;2458200;53;21482;-72
2023/01/25 01:54:15;;;;;;;11.48;6.35;;;7.00;70.30;;;;;;2439229;53;21436;-72
2023/01/25 01:57:34;;;;;;;11.93;6.05;;;7.00;70.00;;;;;;2314668;54;20998;-73
2023/01/25 02:00:45;;;;;;;10.65;5.72;;;7.00;69.80;;;;;;2314023;54;21359;-72
2023/01/25 02:03:11;;;;;;;13.70;5.90;;;7.00;70.30;;;;;;2409406;53;21418;-72
2023/01/25 02:05:46;;;;;;;11.93;5.87;;;7.00;70.20;;;;;;2515317;53;21401;-72
2023/01/25 02:08:12;;;;;;;13.57;6.93;;;7.00;70.20;;;;;;2314297;54;20949;-72
2023/01/25 02:10:39;;;;;;;14.65;7.25;;;6.90;70.10;;;;;;2493786;53;21091;-72
2023/01/25 02:13:05;;;;;;;11.35;6.30;;;6.90;70.10;;;;;;2314471;54;21025;-73
2023/01/25 02:15:52;;;;;;;14.32;6.47;;;6.90;70.10;;;;;;2314024;54;21322;-73
2023/01/25 02:18:19;;;;;;;13.43;6.55;;;6.90;69.90;;;;;;2553718;53;21413;-72
2023/01/25 02:20:47;;;;;;;10.93;5.93;;;6.90;70.20;;;;;;2453295;53;21225;-73
2023/01/25 02:23:58;;;;;;;10.90;6.35;;;6.90;70.30;;;;;;2314348;54;20933;-72
2023/01/25 02:26:24;;;;;;;11.32;5.95;;;6.90;70.00;;;;;;2536207;53;20937;-72
2023/01/25 02:28:55;;;;;;;12.25;6.43;;;6.90;70.30;;;;;;2312735;54;21552;-72
2023/01/25 02:31:22;;;;;;;11.45;5.57;;;6.90;70.30;;;;;;2431234;53;20937;-72
2023/01/25 02:33:48;;;;;;;10.18;5.50;;;6.90;70.30;;;;;;2313081;54;21001;-72
2023/01/25 02:36:18;;;;;;;11.57;6.25;;;6.90;70.30;;;;;;2354246;53;21013;-71
2023/01/25 02:38:58;;;;;;;10.85;6.30;;;6.90;70.30;;;;;;2404212;53;20952;-72
2023/01/25 02:41:35;;;;;;;13.68;6.40;;;6.90;70.20;;;;;;2319266;54;20949;-72
2023/01/25 02:44:04;;;;;;;11.65;5.68;;;6.90;70.30;;;;;;2313422;54;21478;-72
2023/01/25 02:46:35;;;;;;;13.38;7.00;;;6.90;70.40;;;;;;2552472;53;20956;-72
2023/01/25 02:49:01;;;;;;;10.20;6.00;;;6.90;70.40;;;;;;2312310;54;20980;-72
2023/01/25 02:51:28;;;;;;;12.57;6.25;;;6.90;70.40;;;;;;2312538;54;21032;-72
2023/01/25 02:53:55;;;;;;;12.15;6.07;;;6.90;70.40;;;;;;2313133;54;20917;-72
2023/01/25 02:56:28;;;;;;;13.32;7.47;;;6.90;70.30;;;;;;2443047;53;21013;-73
2023/01/25 02:58:54;;;;;;;12.20;6.78;;;6.90;70.20;;;;;;2313197;54;20993;-72
2023/01/25 03:01:20;;;;;;;15.38;7.53;;;6.90;70.30;;;;;;2312458;54;20945;-71
2023/01/25 03:03:47;;;;;;;13.18;7.45;;;6.90;70.30;;;;;;2313030;54;21384;-72
2023/01/25 03:06:13;;;;;;;12.23;6.82;;;6.90;70.30;;;;;;2547982;53;20944;-72
2023/01/25 03:08:39;;;;;;;11.80;6.40;;;6.90;70.30;;;;;;2312420;54;20905;-72
2023/01/25 03:11:06;;;;;;;11.88;6.43;;;6.90;70.30;;;;;;2313458;54;21532;-72
2023/01/25 03:13:32;;;;;;;13.43;7.03;;;6.90;70.30;;;;;;2312420;54;20977;-72
2023/01/25 03:16:00;;;;;;;12.85;7.20;;;6.90;70.30;;;;;;2384883;53;21525;-73
2023/01/25 03:18:27;;;;;;;13.50;7.53;;;6.90;70.30;;;;;;2311968;53;21800;-72
2023/01/25 03:20:53;;;;;;;12.50;6.62;;;6.90;70.30;;;;;;2312724;54;20997;-72
2023/01/25 03:23:19;;;;;;;15.63;8.02;;;6.90;70.30;;;;;;2400203;53;20948;-72
2023/01/25 03:25:45;;;;;;;12.45;7.32;;;6.90;70.30;;;;;;2554400;53;21481;-73
2023/01/25 03:28:12;;;;;;;14.15;7.12;;;6.90;70.30;;;;;;2314528;54;20997;-72
2023/01/25 03:30:38;;;;;;;15.48;6.97;;;6.90;70.30;;;;;;2313896;54;21011;-72
2023/01/25 03:33:04;;;;;;;14.27;6.87;;;6.90;70.20;;;;;;2314749;54;21378;-72
2023/01/25 03:35:30;;;;;;;12.18;6.68;;;6.90;70.10;;;;;;2313400;54;20957;-73
2023/01/25 03:37:56;;;;;;;12.90;6.53;;;6.90;70.10;;;;;;2406365;53;21826;-73
2023/01/25 03:40:23;;;;;;;11.57;6.35;;;6.90;70.10;;;;;;2313975;54;21044;-72
2023/01/25 03:42:49;;;;;;;13.10;7.03;;;6.90;70.10;;;;;;2402931;53;20933;-72
2023/01/25 03:45:15;;;;;;;11.88;6.25;;;6.90;70.10;;;;;;2313353;54;20972;-73
2023/01/25 03:47:42;;;;;;;12.40;6.75;;;6.90;70.20;;;;;;2314282;54;20941;-72
2023/01/25 03:50:09;;;;;;;12.00;6.62;;;6.90;70.10;;;;;;2314691;54;20943;-72
2023/01/25 03:52:39;;;;;;;11.25;5.87;;;6.90;70.10;;;;;;2314075;54;21510;-72
2023/01/25 03:55:06;;;;;;;12.27;6.90;;;6.90;70.00;;;;;;2327356;53;20944;-72
2023/01/25 03:57:33;;;;;;;11.48;6.68;;;6.90;70.00;;;;;;2313608;54;21461;-73
2023/01/25 03:59:59;;;;;;;12.00;6.47;;;6.90;70.10;;;;;;2314704;54;21375;-73
2023/01/25 04:02:25;;;;;;;12.65;7.35;;;6.90;70.10;;;;;;2314077;54;20932;-72
2023/01/25 04:04:51;;;;;;;13.65;7.15;;;6.90;70.10;;;;;;2314357;54;21503;-72
2023/01/25 04:07:18;;;;;;;15.45;7.43;;;6.80;70.00;;;;;;2314525;54;21017;-73
2023/01/25 04:09:44;;;;;;;14.18;7.43;;;6.80;70.00;;;;;;2362343;53;21011;-71
2023/01/25 04:12:10;;;;;;;15.27;7.15;;;6.80;69.90;;;;;;2314111;54;20925;-71
2023/01/25 04:14:36;;;;;;;14.40;7.47;;;6.80;69.90;;;;;;2374898;53;20957;-72
2023/01/25 04:17:10;;;;;;;14.98;7.68;;;6.80;69.80;;;;;;2314545;54;20933;-72
2023/01/25 04:19:36;;;;;;;14.10;7.28;;;6.80;69.90;;;;;;2313766;54;21004;-72
2023/01/25 04:22:02;;;;;;;16.17;7.70;;;6.80;69.90;;;;;;2369995;53;21395;-73
2023/01/25 04:24:29;;;;;;;15.43;7.25;;;6.80;70.00;;;;;;2313111;54;21477;-72
2023/01/25 04:26:55;;;;;;;15.73;7.53;;;6.70;70.00;;;;;;2313768;54;21027;-72
2023/01/25 04:29:21;;;;;;;14.60;7.30;;;6.70;70.00;;;;;;2313714;54;21358;-72
2023/01/25 04:31:57;;;;;;;14.20;7.00;;;6.70;70.20;;;;;;2311280;54;21529;-72
2023/01/25 04:34:23;;;;;;;14.98;7.55;;;6.70;70.10;;;;;;2327526;53;20941;-72
2023/01/25 04:36:50;;;;;;;13.85;7.15;;;6.80;70.10;;;;;;2397315;53;21376;-72
2023/01/25 04:39:16;;;;;;;13.68;6.97;;;6.70;70.00;;;;;;2340146;54;20965;-72
2023/01/25 04:41:42;;;;;;;14.87;7.57;;;6.70;69.90;;;;;;2303117;53;21019;-73
2023/01/25 04:44:10;;;;;;;17.23;7.65;;;6.70;69.90;;;;;;2537858;53;21505;-72
2023/01/25 04:46:37;;;;;;;16.00;7.40;;;6.70;70.00;;;;;;2299373;54;21997;-72
2023/01/25 04:49:03;;;;;;;16.15;8.20;;;6.70;69.90;;;;;;2296189;54;21338;-72
2023/01/25 04:51:29;;;;;;;13.90;7.35;;;6.70;69.90;;;;;;2293073;54;20964;-72
2023/01/25 04:53:56;;;;;;;14.30;7.70;;;6.70;69.90;;;;;;2293711;54;20949;-73
2023/01/25 04:56:22;;;;;;;14.18;7.85;;;6.70;69.80;;;;;;2292816;54;21470;-72
2023/01/25 04:58:48;;;;;;;15.90;7.87;;;6.70;69.80;;;;;;2293428;54;20964;-73
2023/01/25 05:01:14;;;;;;;15.13;7.53;;;6.70;69.80;;;;;;2293336;54;20980;-72
2023/01/25 05:03:41;;;;;;;13.43;7.20;;;6.60;69.70;;;;;;2293133;54;21735;-73
2023/01/25 05:06:07;;;;;;;14.43;7.37;;;6.60;69.80;;;;;;2293836;54;20948;-72
2023/01/25 05:08:33;;;;;;;16.73;8.35;;;6.60;69.80;;;;;;2307761;54;21611;-73
2023/01/25 05:10:59;;;;;;;16.45;7.75;;;6.60;69.80;;;;;;2293556;54;21473;-72
2023/01/25 05:13:26;;;;;;;15.73;8.38;;;6.60;69.80;;;;;;2321059;54;21611;-72
2023/01/25 05:15:54;;;;;;;17.65;8.80;;;6.60;69.80;;;;;;2293438;54;21356;-73
2023/01/25 05:18:20;;;;;;;16.52;8.45;;;6.60;69.80;;;;;;2292995;54;21439;-72
2023/01/25 05:20:46;;;;;;;14.18;7.75;;;6.60;69.80;;;;;;2293327;54;21008;-72
2023/01/25 05:23:13;;;;;;;15.00;8.50;;;6.60;69.80;;;;;;2293746;54;21664;-72
2023/01/25 05:28:23;;;;;;;16.98;8.55;;;6.50;69.80;;;;;;2293073;54;21479;-73
2023/01/25 05:30:50;;;;;;;16.52;8.30;;;6.50;69.90;;;;;;2444028;53;21392;-73
2023/01/25 05:33:16;;;;;;;17.55;8.07;;;6.50;69.90;;;;;;2293699;54;21889;-73
2023/01/25 05:35:43;;;;;;;16.52;8.38;;;6.50;70.00;;;;;;2293041;54;21460;-72
2023/01/25 05:38:09;;;;;;;16.98;8.43;;;6.50;70.00;;;;;;2293877;54;22018;-73
2023/01/25 05:40:35;;;;;;;17.45;8.80;;;6.50;69.90;;;;;;2292710;54;21340;-73
2023/01/25 05:43:01;;;;;;;17.37;8.43;;;6.50;69.90;;;;;;2293945;54;22009;-72
2023/01/25 05:45:29;;;;;;;20.60;9.82;;;6.50;70.00;;;;;;2292658;54;21357;-72
2023/01/25 05:47:55;;;;;;;14.75;8.10;;;6.50;69.90;;;;;;2293483;54;21103;-73
2023/01/25 05:50:22;;;;;;;17.52;8.68;;;6.50;69.90;;;;;;2383070;53;21423;-72
2023/01/25 05:52:48;;;;;;;17.92;8.70;;;6.50;69.90;;;;;;2372345;53;20996;-73
2023/01/25 05:55:15;;;;;;;18.08;8.50;;;6.50;69.90;;;;;;2293682;54;20952;-72
2023/01/25 05:57:41;;;;;;;18.42;8.88;;;6.50;69.90;;;;;;2294290;54;22066;-73
2023/01/25 06:00:08;;;;;;;17.30;9.05;;;6.50;69.90;;;;;;2294635;54;22209;-72
2023/01/25 06:02:35;;;;;;;16.00;7.95;;;6.40;69.80;;;;;;2314280;53;20964;-72
2023/01/25 06:05:02;;;;;;;17.33;8.30;;;6.40;69.80;;;;;;2293629;54;21075;-71
2023/01/25 06:07:32;;;;;;;16.65;7.65;;;6.40;69.80;;;;;;2377820;53;21439;-72
2023/01/25 06:09:58;;;;;;;16.50;8.35;;;6.40;69.80;;;;;;2531921;53;21021;-73
2023/01/25 06:12:24;;;;;;;16.15;7.72;;;6.40;69.90;;;;;;2344806;53;22080;-73
2023/01/25 06:14:50;;;;;;;14.45;7.25;;;6.40;69.90;;;;;;2383787;53;21346;-73
2023/01/25 06:17:17;;;;;;;18.20;8.73;;;6.40;70.00;;;;;;2300000;53;21277;-73
2023/01/25 06:19:43;;;;;;;16.62;8.02;;;6.40;70.00;;;;;;2293191;54;22240;-73
2023/01/25 06:22:09;;;;;;;17.98;9.25;;;6.40;70.00;;;;;;2321572;53;21490;-73
2023/01/25 06:24:35;;;;;;;22.17;9.93;;;6.40;70.10;;;;;;2292590;54;22139;-72
2023/01/25 06:27:02;;;;;;;18.37;8.88;;;6.50;70.20;;;;;;2461357;53;21587;-72
2023/01/25 06:29:28;;;;;;;17.92;8.75;;;6.40;70.10;;;;;;2329008;53;21981;-73
2023/01/25 06:31:55;;;;;;;15.70;8.25;;;6.40;70.10;;;;;;2314594;54;21498;-72
2023/01/25 06:34:23;;;;;;;17.55;8.75;;;6.50;70.20;;;;;;2292997;54;20917;-72
2023/01/25 06:36:49;;;;;;;19.45;9.05;;;6.50;70.10;;;;;;2343478;53;21116;-72
2023/01/25 06:39:15;;;;;;;16.48;7.90;;;6.50;70.00;;;;;;2349610;53;21024;-72
2023/01/25 06:41:42;;;;;;;19.55;9.15;;;6.50;69.90;;;;;;2293161;54;21004;-72
2023/01/25 06:44:08;;;;;;;17.52;8.60;;;6.50;69.80;;;;;;2294114;54;21033;-72
2023/01/25 06:46:34;;;;;;;17.70;8.07;;;6.40;69.60;;;;;;2289470;54;21575;-72
2023/01/25 06:49:00;;;;;;;17.62;8.68;;;6.40;69.60;;;;;;2294404;54;21444;-72
2023/01/25 06:51:27;;;;;;;15.52;7.78;;;6.40;69.70;;;;;;2293334;54;21526;-72
2023/01/25 06:53:54;;;;;;;15.15;7.93;;;6.40;69.70;;;;;;2300742;53;21531;-73
2023/01/25 06:56:20;;;;;;;16.15;8.00;;;6.40;69.70;;;;;;2294955;54;20960;-72
2023/01/25 06:58:47;;;;;;;14.25;7.43;;;6.40;69.80;;;;;;2295208;54;21917;-72
2023/01/25 07:01:21;;;;;;;16.70;8.15;;;6.40;69.70;;;;;;2293967;53;21099;-72
2023/01/25 07:03:48;;;;;;;15.52;7.50;;;6.30;69.50;;;;;;2495226;53;21746;-73
2023/01/25 07:06:14;;;;;;;14.02;6.80;;;6.40;69.80;;;;;;2532147;53;21004;-72
2023/01/25 07:08:41;;;;;;;15.23;7.62;;;6.30;69.80;;;;;;2307294;54;20944;-72
2023/01/25 07:11:10;;;;;;;16.15;8.25;;;6.30;69.90;;;;;;2319767;54;21356;-73
2023/01/25 07:13:37;;;;;;;15.07;6.93;;;6.30;70.00;;;;;;2293350;54;21537;-72
2023/01/25 07:16:04;;;;;;;15.20;8.30;;;6.40;70.10;;;;;;2305831;53;20944;-72
2023/01/25 07:18:31;;;;;;;18.48;8.77;;;6.40;70.10;;;;;;2293543;54;21890;-72
2023/01/25 07:21:04;;;;;;;14.70;7.43;;;6.40;70.20;;;;;;2294380;54;20954;-72
2023/01/25 07:23:31;;;;;;;14.63;6.93;;;6.40;70.10;;;;;;2351016;53;20965;-73
2023/01/25 07:25:57;;;;;;;14.73;7.57;;;6.40;70.30;;;;;;2294537;54;22005;-73
2023/01/25 07:28:24;;;;;;;17.20;8.35;;;6.40;70.20;;;;;;2337491;53;21071;-72
2023/01/25 07:30:50;;;;;;;15.93;8.02;;;6.40;70.20;;;;;;2294218;54;21012;-73
2023/01/25 07:33:16;;;;;;;15.35;7.75;;;6.40;70.10;;;;;;2350429;53;20965;-72
2023/01/25 07:35:43;;;;;;;18.02;8.27;;;6.40;69.90;;;;;;2293477;54;21499;-73
2023/01/25 07:38:09;;;;;;;16.37;8.38;;;6.40;69.90;;;;;;2532892;53;21486;-72
2023/01/25 07:40:35;;;;;;;17.77;8.52;;;6.40;69.80;;;;;;2293058;54;21534;-73
2023/01/25 07:43:01;;;;;;;16.37;8.23;;;6.40;69.80;;;;;;2294250;54;20989;-72
2023/01/25 07:45:31;;;;;;;16.15;8.05;;;6.40;69.70;;;;;;2293305;54;22122;-73
2023/01/25 07:47:57;;;;;;;19.52;8.60;;;6.40;69.80;;;;;;2294151;54;21033;-73
2023/01/25 07:50:27;;;;;;;17.45;8.05;;;6.40;69.80;;;;;;2311403;53;21764;-72
2023/01/25 07:52:54;;;;;;;16.00;9.00;;;6.40;69.90;;;;;;2366886;53;21631;-72
2023/01/25 07:55:20;;;;;;;16.90;8.88;;;6.40;70.00;;;;;;2515834;53;21059;-72
2023/01/25 07:57:47;;;;;;;17.70;8.70;;;6.40;70.10;;;;;;2310531;54;22022;-72
2023/01/25 08:00:13;;;;;;;16.55;8.20;;;6.40;70.20;;;;;;2294307;54;20976;-72
2023/01/25 08:02:39;;;;;;;16.15;7.95;;;6.40;70.90;;;;;;2293351;54;20944;-72
2023/01/25 08:05:06;;;;;;;14.45;7.72;;;6.40;70.20;;;;;;2294613;54;20952;-72
2023/01/25 08:07:33;;;;;;;16.83;8.18;;;6.40;70.20;;;;;;2444186;53;21417;-73
2023/01/25 08:09:59;;;;;;;16.27;8.40;;;6.40;70.10;;;;;;2453888;53;21515;-72
2023/01/25 08:12:26;;;;;;;14.80;7.93;;;6.40;70.00;;;;;;2345702;53;21064;-72
2023/01/25 08:14:53;;;;;;;15.77;8.10;;;6.40;70.00;;;;;;2294232;54;21392;-72
2023/01/25 08:17:19;;;;;;;14.85;7.80;;;6.40;70.10;;;;;;2322147;53;21974;-72
2023/01/25 08:19:45;;;;;;;17.17;8.90;;;6.50;70.20;;;;;;2298495;54;20963;-73
2023/01/25 08:22:12;;;;;;;15.77;8.25;;;6.50;70.30;;;;;;2457851;53;21056;-72
2023/01/25 08:24:38;;;;;;;14.55;7.53;;;6.50;70.20;;;;;;2518371;53;21513;-72
2023/01/25 08:27:05;;;;;;;17.00;9.07;;;6.50;70.10;;;;;;2294330;53;21467;-73
2023/01/25 08:29:31;;;;;;;18.45;8.93;;;6.40;70.00;;;;;;2293384;54;20972;-72
2023/01/25 08:31:57;;;;;;;15.88;8.00;;;6.50;70.10;;;;;;2294192;53;20976;-72
2023/01/25 08:34:24;;;;;;;19.00;8.65;;;6.50;70.10;;;;;;2314636;53;21024;-72
2023/01/25 08:36:50;;;;;;;17.20;8.15;;;6.50;70.10;;;;;;2302614;54;21498;-73
2023/01/25 08:39:17;;;;;;;19.67;9.02;;;6.50;70.20;;;;;;2294122;54;21554;-72
2023/01/25 08:41:44;;;;;;;17.45;8.82;;;6.50;70.30;;;;;;2484019;53;21597;-73
2023/01/25 08:44:10;;;;;;;16.60;8.32;;;6.50;70.40;;;;;;2471781;53;21516;-73
2023/01/25 08:46:36;;;;;;;17.73;7.95;;;6.50;70.40;;;;;;2297312;53;21568;-73
2023/01/25 08:49:03;;;;;;;19.17;9.23;;;6.50;70.40;;;;;;2294025;54;21418;-72
2023/01/25 08:51:30;;;;;;;15.82;7.90;;;6.50;70.40;;;;;;2344971;53;22004;-72
2023/01/25 08:53:56;;;;;;;18.73;9.00;;;6.60;70.60;;;;;;2293903;54;21072;-72
2023/01/25 08:56:22;;;;;;;19.10;8.48;;;6.60;70.60;;;;;;2293660;54;21517;-72
2023/01/25 08:58:49;;;;;;;21.65;10.05;;;6.60;70.60;;;;;;2293592;54;21151;-73
2023/01/25 09:01:16;;;;;;;16.33;8.32;;;6.60;70.50;;;;;;2325129;54;21087;-72
2023/01/25 09:03:43;;;;;;;17.25;8.60;;;6.60;70.50;;;;;;2320499;54;21524;-73
2023/01/25 09:06:10;;;;;;;18.55;9.73;;;6.60;70.50;;;;;;2532452;53;21444;-72
2023/01/25 09:08:39;;;;;;;18.77;8.75;;;6.70;70.50;;;;;;2301453;54;20978;-73
2023/01/25 09:11:07;;;;;;;17.85;8.70;;;6.70;70.50;;;;;;2313339;53;20961;-72
2023/01/25 09:13:33;;;;;;;19.50;8.60;;;6.70;70.60;;;;;;2297282;54;22410;-73
2023/01/25 09:16:04;;;;;;;15.80;8.00;;;6.70;70.60;;;;;;2294253;54;21063;-72
2023/01/25 09:18:31;;;;;;;19.67;9.27;;;6.70;70.60;;;;;;2293603;54;21454;-72
2023/01/25 09:20:57;;;;;;;15.50;8.25;;;6.80;70.50;;;;;;2293860;54;21016;-73
2023/01/25 09:23:23;;;;;;;18.17;8.63;;;6.70;70.70;;;;;;2304215;53;21479;-73
2023/01/25 09:25:57;;;;;;;16.98;7.90;;;6.80;70.80;;;;;;2308545;53;20980;-73
2023/01/25 09:28:23;;;;;;;16.25;7.93;;;6.80;70.60;;;;;;2319362;53;21261;-72
2023/01/25 09:30:56;;;;;;;15.32;7.57;;;6.90;70.70;;;;;;2325950;53;21399;-73
2023/01/25 09:33:44;;;;;;;17.12;8.13;;;6.90;70.60;;;;;;2293509;54;21005;-73
2023/01/25 09:36:11;;;;;;;13.48;6.72;;;6.90;70.60;;;;;;2532397;53;21353;-73
2023/01/25 09:38:37;;;;;;;13.65;7.03;;;6.90;70.50;;;;;;2293624;54;21405;-72
2023/01/25 09:41:22;;;;;;;15.95;7.32;;;6.90;70.60;;;;;;2294152;54;21060;-72
2023/01/25 09:47:00;;;;;;;14.07;7.55;;;6.90;70.50;;;;;;2293570;54;21268;-72
2023/01/25 09:50:10;;;;;;;12.55;6.43;;;7.00;70.00;;;;;;2341238;53;21715;-73
2023/01/25 09:59:29;;;;;;;12.13;5.87;;;7.00;70.10;;;;;;2293636;54;21480;-72
2023/01/25 10:03:42;;;;;;;16.15;5.87;;;7.10;69.90;;;;;;2307914;54;21220;-73
2023/01/25 10:06:09;;;;;;;12.27;6.18;;;7.10;70.20;;;;;;2289372;54;21552;-73
2023/01/25 10:08:39;;;;;;;13.57;6.78;;;7.10;71.10;;;;;;2288560;53;21376;-73
2023/01/25 10:12:15;;;;;;;15.35;6.95;;;7.10;70.50;;;;;;2289612;54;21474;-73
2023/01/25 10:14:41;;;;;;;15.65;7.00;;;7.10;70.40;;;;;;2288741;54;21381;-73
2023/01/25 10:17:33;;;;;;;15.63;7.90;;;7.10;70.70;;;;;;2313947;53;22266;-72
2023/01/25 10:20:23;;;;;;;17.27;7.27;;;7.10;70.70;;;;;;2311064;54;20953;-73
2023/01/25 10:22:52;;;;;;;16.87;8.63;;;7.20;70.60;;;;;;2327765;53;20989;-72
2023/01/25 10:26:09;;;;;;;16.42;8.48;;;7.20;70.70;;;;;;2290824;54;20953;-72
2023/01/25 10:28:52;;;;;;;16.58;7.90;;;7.20;70.00;;;;;;2290477;54;20968;-73
2023/01/25 10:31:28;;;;;;;15.80;8.38;;;7.20;70.40;;;;;;2330161;54;21464;-72
2023/01/25 10:33:54;;;;;;;18.50;8.48;;;7.20;70.30;;;;;;2494738;53;21400;-72
2023/01/25 10:36:23;;;;;;;16.33;8.27;;;7.20;70.30;;;;;;2296866;54;21019;-73
2023/01/25 10:38:50;;;;;;;17.15;9.38;;;7.20;70.30;;;;;;2290503;54;20985;-72
2023/01/25 10:41:27;;;;;;;18.92;9.00;;;7.20;70.30;;;;;;2433383;53;20969;-73
2023/01/25 10:46:39;;;;;;;18.45;8.40;;;7.20;70.20;;;;;;2288492;54;21481;-73
2023/01/25 10:49:21;;;;;;;16.33;7.95;;;7.20;70.20;;;;;;2523398;53;20968;-73
2023/01/25 10:51:47;;;;;;;17.20;8.10;;;7.20;70.20;;;;;;2284601;55;21344;-73
2023/01/25 10:54:14;;;;;;;17.50;8.70;;;7.20;70.20;;;;;;2289683;54;21423;-73
2023/01/25 10:56:41;;;;;;;15.63;8.25;;;7.20;70.20;;;;;;2294064;54;21004;-73
2023/01/25 10:59:26;;;;;;;14.77;6.87;;;7.20;70.20;;;;;;2289316;54;22134;-73
2023/01/25 11:01:52;;;;;;;14.52;7.87;;;7.20;70.00;;;;;;2327128;53;21439;-73
2023/01/25 11:04:51;;;;;;;15.40;7.80;;;7.20;70.30;;;;;;2345283;53;21127;-73
2023/01/25 11:07:36;;;;;;;13.25;6.85;;;7.30;70.20;;;;;;2337008;53;21922;-73
2023/01/25 11:10:02;;;;;;;15.45;7.37;;;7.30;70.40;;;;;;2289286;54;21012;-73
2023/01/25 11:12:28;;;;;;;15.00;7.40;;;7.30;70.70;;;;;;2525863;53;21415;-73
2023/01/25 11:14:55;;;;;;;14.43;7.28;;;7.30;70.70;;;;;;2300722;54;21898;-73
2023/01/25 11:17:28;;;;;;;15.15;7.62;;;7.40;70.80;;;;;;2526628;53;21371;-73
2023/01/25 11:22:32;;;;;;;12.68;6.57;;;7.40;70.70;;;;;;2288979;54;20960;-73
2023/01/25 11:24:58;;;;;;;13.35;6.70;;;7.50;70.10;;;;;;2467163;53;21466;-73
2023/01/25 11:27:26;;;;;;;14.40;6.93;;;7.50;70.80;;;;;;2457568;53;21725;-73
2023/01/25 11:30:09;;;;;;;13.18;7.05;;;7.50;70.80;;;;;;2289287;54;22147;-72
2023/01/25 11:32:39;;;;;;;16.08;7.85;;;7.50;70.30;;;;;;2288623;54;21572;-73
2023/01/25 11:35:12;;;;;;;16.50;7.70;;;7.60;70.60;;;;;;2288824;54;21340;-73
2023/01/25 11:38:11;;;;;;;13.90;7.30;;;7.60;70.80;;;;;;2324565;53;21032;-73
2023/01/25 11:40:46;;;;;;;14.70;7.43;;;7.60;70.30;;;;;;2288327;54;21333;-73
2023/01/25 11:44:56;;;;;;;15.23;7.47;;;7.60;70.30;;;;;;2289158;54;21465;-72
2023/01/25 11:47:40;;;;;;;13.23;6.20;;;7.60;69.40;;;;;;2380356;53;20937;-73
2023/01/25 11:50:12;;;;;;;11.15;5.80;;;7.60;70.00;;;;;;2289281;54;20968;-73
2023/01/25 11:58:14;;;;;;;12.50;6.70;;;7.60;70.30;;;;;;2288482;54;21430;-73
2023/01/25 12:02:22;;;;;;;11.50;5.62;;;7.70;69.90;;;;;;2288512;54;21340;-73
2023/01/25 12:05:49;;;;;;;13.05;5.90;;;7.70;69.70;;;;;;2288389;54;21867;-73
2023/01/25 12:10:01;;;;;;;14.60;7.40;;;7.70;69.80;;;;;;2289241;53;20949;-73
2023/01/25 12:14:07;;;;;;;13.62;6.90;;;7.70;69.90;;;;;;2288807;53;21461;-73
2023/01/25 12:17:18;;;;;;;18.87;8.95;;;7.70;69.40;;;;;;2292101;54;21772;-72
2023/01/25 12:20:40;;;;;;;18.65;8.65;;;7.70;69.70;;;;;;2332966;53;21486;-73
2023/01/25 12:23:20;;;;;;;14.77;7.68;;;7.70;69.40;;;;;;2293896;54;21792;-73
2023/01/25 12:29:09;;;;;;;18.73;8.35;;;7.70;70.00;;;;;;2495181;53;21420;-74
2023/01/25 12:32:23;;;;;;;13.62;6.72;;;7.70;69.80;;;;;;2309200;53;20982;-72
2023/01/25 12:34:55;;;;;;;13.57;6.90;;;7.70;69.90;;;;;;2296292;53;20953;-73
2023/01/25 12:37:26;;;;;;;14.13;7.35;;;7.60;70.00;;;;;;2373791;53;20980;-72
2023/01/25 12:39:56;;;;;;;15.95;7.87;;;7.60;70.00;;;;;;2465710;53;20992;-73
2023/01/25 12:42:39;;;;;;;14.18;7.40;;;7.60;70.00;;;;;;2355039;53;21500;-72
2023/01/25 12:45:10;;;;;;;14.60;7.80;;;7.60;69.80;;;;;;2293413;54;21012;-73
2023/01/25 12:47:39;;;;;;;16.25;8.23;;;7.60;70.00;;;;;;2292925;54;21430;-72
2023/01/25 12:50:57;;;;;;;15.30;7.95;;;7.60;69.90;;;;;;2323747;54;21900;-73
2023/01/25 12:55:16;;;;;;;14.73;7.20;;;7.60;69.70;;;;;;2444364;53;21503;-73
2023/01/25 12:57:58;;;;;;;13.65;6.90;;;7.60;69.90;;;;;;2293095;54;22144;-72
2023/01/25 13:02:19;;;;;;;15.27;7.40;;;7.60;69.80;;;;;;2393087;53;21040;-73
2023/01/25 13:06:29;;;;;;;13.27;6.87;;;7.60;69.30;;;;;;2531280;53;20988;-73
2023/01/25 13:09:43;;;;;;;13.55;6.95;;;7.60;69.70;;;;;;2293527;54;21493;-73
2023/01/25 13:12:10;;;;;;;14.65;7.32;;;7.50;69.30;;;;;;2426576;53;21412;-73
2023/01/25 13:14:39;;;;;;;16.80;8.57;;;7.50;69.90;;;;;;2350122;53;21072;-73
2023/01/25 13:17:31;;;;;;;16.67;8.15;;;7.50;69.80;;;;;;2293856;54;20937;-72
2023/01/25 13:20:00;;;;;;;13.25;6.82;;;7.50;69.50;;;;;;2392542;53;21886;-73
2023/01/25 13:22:53;;;;;;;14.40;7.28;;;7.50;70.40;;;;;;2354261;53;20985;-73
2023/01/25 13:25:21;;;;;;;11.93;6.95;;;7.50;69.60;;;;;;2532237;53;21905;-72
2023/01/25 13:27:47;;;;;;;13.27;6.90;;;7.50;70.10;;;;;;2293783;54;22070;-73
2023/01/25 13:30:31;;;;;;;12.68;6.57;;;7.50;70.10;;;;;;2297473;54;20992;-73
2023/01/25 13:33:02;;;;;;;13.48;6.95;;;7.50;69.80;;;;;;2294586;54;21060;-73
2023/01/25 13:35:33;;;;;;;13.05;6.35;;;7.50;70.20;;;;;;2294074;54;21041;-73
2023/01/25 13:38:49;;;;;;;12.35;6.50;;;7.50;70.10;;;;;;2294952;54;21463;-73
2023/01/25 13:41:15;;;;;;;14.18;7.45;;;7.50;70.10;;;;;;2295044;54;20936;-73
2023/01/25 13:43:43;;;;;;;14.27;7.57;;;7.50;70.20;;;;;;2294001;54;21024;-73
2023/01/25 13:46:11;;;;;;;16.92;7.53;;;7.50;70.10;;;;;;2294672;54;22324;-73